createdAt,value
2023-03-29T00:04:14.040Z,8.02
2023-03-29T00:09:20.493Z,8.08
2023-03-29T00:14:27.173Z,8.15
2023-03-29T00:19:38.329Z,8.22
2023-03-29T00:24:43.829Z,7.87
2023-03-29T00:29:49.275Z,8.23
2023-03-29T00:34:55.165Z,7.59
2023-03-29T00:40:01.595Z,7.91
2023-03-29T00:45:21.826Z,7.72
2023-03-29T00:50:33.008Z,7.64
2023-03-29T00:56:07.033Z,7.54
2023-03-29T01:01:20.057Z,7.59
2023-03-29T01:06:34.589Z,7.59
2023-03-29T01:11:48.056Z,7.55
2023-03-29T01:16:54.061Z,7.38
2023-03-29T01:22:43.177Z,7.40
2023-03-29T01:28:18.371Z,7.33
2023-03-29T01:33:40.241Z,7.12
2023-03-29T01:38:45.464Z,7.15
2023-03-29T01:44:08.080Z,7.31
2023-03-29T01:49:43.335Z,7.35
2023-03-29T01:55:08.845Z,7.47
2023-03-29T02:00:21.657Z,7.38
2023-03-29T02:05:31.187Z,7.32
2023-03-29T02:10:37.592Z,7.23
2023-03-29T02:15:45.843Z,7.25
2023-03-29T02:20:53.381Z,7.29
2023-03-29T02:25:59.333Z,7.26
2023-03-29T02:31:27.562Z,7.34
2023-03-29T02:36:42.518Z,7.36
2023-03-29T02:41:51.202Z,7.41
2023-03-29T02:47:04.086Z,7.27
2023-03-29T02:52:19.262Z,7.18
2023-03-29T02:57:26.998Z,7.02
2023-03-29T03:02:32.425Z,7.21
2023-03-29T03:07:37.880Z,7.21
2023-03-29T03:12:43.496Z,7.26
2023-03-29T03:17:49.973Z,7.40
2023-03-29T03:22:58.119Z,7.41
2023-03-29T03:28:03.461Z,7.06
2023-03-29T03:33:10.422Z,7.51
2023-03-29T03:38:36.792Z,7.44
2023-03-29T03:43:44.543Z,7.65
2023-03-29T03:48:50.146Z,7.82
2023-03-29T03:54:02.037Z,8.10
2023-03-29T03:59:14.290Z,8.06
2023-03-29T04:04:33.194Z,8.39
2023-03-29T04:09:50.274Z,8.08
2023-03-29T04:15:18.506Z,8.38
2023-03-29T04:20:30.351Z,8.33
2023-03-29T04:25:37.589Z,8.16
2023-03-29T04:31:02.406Z,8.21
2023-03-29T04:36:31.760Z,8.20
2023-03-29T04:41:36.918Z,8.42
2023-03-29T04:46:51.806Z,8.33
2023-03-29T04:52:22.394Z,8.42
2023-03-29T04:57:30.991Z,8.36
2023-03-29T05:02:54.685Z,8.26
2023-03-29T05:08:03.187Z,8.57
2023-03-29T05:13:24.081Z,8.76
2023-03-29T05:18:30.451Z,9.08
2023-03-29T05:23:35.018Z,9.28
2023-03-29T05:28:54.903Z,9.51
2023-03-29T05:33:59.438Z,9.36
2023-03-29T05:39:09.145Z,9.63
2023-03-29T05:44:13.991Z,9.56
2023-03-29T05:49:20.715Z,9.67
2023-03-29T05:54:39.415Z,9.42
2023-03-29T05:59:44.564Z,9.41
2023-03-29T06:04:49.484Z,9.31
2023-03-29T06:09:59.414Z,9.57
2023-03-29T06:15:05.692Z,9.68
2023-03-29T06:20:20.342Z,9.67
2023-03-29T06:25:30.713Z,9.64
2023-03-29T06:30:35.634Z,9.63
2023-03-29T06:35:43.534Z,9.71
2023-03-29T06:40:53.487Z,10.07
2023-03-29T06:46:01.116Z,9.79
2023-03-29T06:51:16.664Z,10.20
2023-03-29T06:56:21.278Z,10.18
2023-03-29T07:01:40.264Z,10.44
2023-03-29T07:07:02.038Z,10.64
2023-03-29T07:12:10.976Z,10.65
2023-03-29T07:17:15.482Z,10.50
2023-03-29T07:22:21.247Z,10.91
2023-03-29T07:27:30.083Z,10.78
2023-03-29T07:32:34.478Z,11.20
2023-03-29T07:37:50.301Z,11.66
2023-03-29T07:42:57.204Z,11.58
2023-03-29T07:48:02.683Z,11.58
2023-03-29T07:53:23.946Z,11.89
2023-03-29T07:58:31.911Z,12.27
2023-03-29T08:03:36.700Z,12.03
2023-03-29T08:08:42.875Z,12.42
2023-03-29T08:13:52.136Z,12.26
2023-03-29T08:19:15.442Z,12.25
2023-03-29T08:24:38.021Z,12.58
2023-03-29T08:29:44.710Z,12.65
2023-03-29T08:34:49.386Z,12.71
2023-03-29T08:40:08.429Z,12.70
2023-03-29T08:45:51.631Z,12.57
2023-03-29T08:51:10.106Z,12.66
2023-03-29T08:56:21.532Z,13.14
2023-03-29T09:01:54.655Z,13.17
2023-03-29T09:07:00.225Z,13.19
2023-03-29T09:12:22.422Z,13.30
2023-03-29T09:17:49.760Z,13.59
2023-03-29T09:23:26.344Z,13.75
2023-03-29T09:29:10.511Z,13.62
2023-03-29T09:34:20.129Z,13.46
2023-03-29T09:39:39.203Z,13.80
2023-03-29T09:44:57.885Z,13.44
2023-03-29T09:50:31.090Z,13.37
2023-03-29T09:55:41.395Z,13.79
2023-03-29T10:00:59.739Z,13.94
2023-03-29T10:06:07.696Z,13.76
2023-03-29T10:11:19.485Z,13.85
2023-03-29T10:16:36.029Z,13.80
2023-03-29T10:21:42.793Z,13.67
2023-03-29T10:26:47.662Z,14.03
2023-03-29T10:31:52.671Z,14.05
2023-03-29T10:37:00.653Z,13.87
2023-03-29T10:42:05.857Z,13.92
2023-03-29T10:47:11.203Z,14.27
2023-03-29T10:52:17.044Z,14.10
2023-03-29T10:57:41.869Z,14.00
2023-03-29T11:02:52.335Z,14.13
2023-03-29T11:08:31.856Z,14.12
2023-03-29T11:13:48.996Z,14.17
2023-03-29T11:19:10.513Z,14.07
2023-03-29T11:24:42.886Z,14.24
2023-03-29T11:29:50.150Z,14.16
2023-03-29T11:35:17.143Z,14.19
2023-03-29T11:40:45.750Z,14.23
2023-03-29T11:46:09.588Z,14.14
2023-03-29T11:51:26.960Z,14.32
2023-03-29T11:56:56.353Z,14.46
2023-03-29T12:02:13.972Z,14.51
2023-03-29T12:07:27.236Z,14.47
2023-03-29T12:13:04.394Z,14.37
2023-03-29T12:18:27.255Z,14.39
2023-03-29T12:23:34.730Z,14.45
2023-03-29T12:28:44.184Z,14.45
2023-03-29T12:34:08.965Z,14.73
2023-03-29T12:39:45.739Z,14.89
2023-03-29T12:45:18.759Z,14.87
2023-03-29T12:50:38.639Z,14.80
2023-03-29T12:55:43.009Z,14.90
2023-03-29T13:00:48.596Z,14.89
2023-03-29T13:06:09.175Z,14.82
2023-03-29T13:11:31.428Z,14.99
2023-03-29T13:16:36.465Z,14.96
2023-03-29T13:22:12.368Z,14.95
2023-03-29T13:27:54.538Z,14.83
2023-03-29T13:33:27.664Z,14.90
2023-03-29T13:38:46.101Z,14.76
2023-03-29T13:43:55.181Z,14.69
2023-03-29T13:49:15.015Z,14.79
2023-03-29T13:54:43.419Z,14.77
2023-03-29T14:00:14.563Z,14.82
2023-03-29T14:05:24.449Z,14.77
2023-03-29T14:10:41.900Z,14.69
2023-03-29T14:16:09.557Z,14.64
2023-03-29T14:21:16.328Z,14.55
2023-03-29T14:26:23.751Z,14.44
2023-03-29T14:31:33.759Z,14.29
2023-03-29T14:36:39.592Z,14.14
2023-03-29T14:42:00.107Z,14.00
2023-03-29T14:47:06.183Z,13.95
2023-03-29T14:52:13.825Z,13.82
2023-03-29T14:57:19.922Z,13.70
2023-03-29T15:02:31.352Z,13.47
2023-03-29T15:07:37.710Z,13.40
2023-03-29T15:12:43.150Z,13.28
2023-03-29T15:17:52.388Z,13.22
2023-03-29T15:23:05.061Z,13.06
2023-03-29T15:28:33.301Z,12.94
2023-03-29T15:33:40.892Z,12.85
2023-03-29T15:38:51.646Z,12.75
2023-03-29T15:43:58.076Z,12.59
2023-03-29T15:49:04.492Z,12.52
2023-03-29T15:54:09.740Z,12.61
2023-03-29T15:59:15.373Z,12.57
2023-03-29T16:04:22.936Z,12.53
2023-03-29T16:09:28.415Z,12.57
2023-03-29T16:14:34.113Z,12.63
2023-03-29T16:19:39.416Z,12.51
2023-03-29T16:24:45.155Z,12.15
2023-03-29T16:29:50.462Z,12.06
2023-03-29T16:34:55.834Z,12.15
2023-03-29T16:40:01.210Z,12.11
2023-03-29T16:45:07.446Z,12.18
2023-03-29T16:50:14.887Z,12.16
2023-03-29T16:55:21.805Z,12.07
2023-03-29T17:00:27.045Z,11.93
2023-03-29T17:05:33.958Z,11.94
2023-03-29T17:10:42.082Z,11.90
2023-03-29T17:15:47.384Z,11.78
2023-03-29T17:20:56.052Z,11.78
2023-03-29T17:26:02.816Z,11.71
2023-03-29T17:31:08.653Z,11.76
2023-03-29T17:36:13.846Z,11.49
2023-03-29T17:41:19.772Z,11.70
2023-03-29T17:46:25.130Z,11.73
2023-03-29T17:51:30.800Z,11.72
2023-03-29T17:56:36.525Z,11.69
2023-03-29T18:01:42.374Z,11.60
2023-03-29T18:06:50.000Z,11.64
2023-03-29T18:11:55.364Z,11.69
2023-03-29T18:17:00.995Z,11.66
2023-03-29T18:22:06.413Z,11.68
2023-03-29T18:27:12.777Z,11.76
2023-03-29T18:32:18.138Z,11.53
2023-03-29T18:37:23.456Z,11.88
2023-03-29T18:42:28.844Z,11.82
2023-03-29T18:47:34.118Z,11.92
2023-03-29T18:52:39.494Z,11.93
2023-03-29T18:57:45.070Z,11.92
2023-03-29T19:02:50.550Z,11.95
2023-03-29T19:07:55.811Z,11.97
2023-03-29T19:13:01.535Z,11.98
2023-03-29T19:18:09.431Z,11.89
2023-03-29T19:23:14.764Z,11.74
2023-03-29T19:28:19.967Z,11.45
2023-03-29T19:33:25.396Z,11.50
2023-03-29T19:38:31.242Z,11.12
2023-03-29T19:43:36.664Z,11.35
2023-03-29T19:48:43.176Z,11.28
2023-03-29T19:53:48.600Z,11.14
2023-03-29T19:58:54.414Z,11.18
2023-03-29T20:03:59.794Z,11.14
2023-03-29T20:09:05.715Z,11.13
2023-03-29T20:14:11.992Z,11.04
2023-03-29T20:19:27.112Z,10.93
2023-03-29T20:24:33.244Z,10.97
2023-03-29T20:29:38.636Z,10.98
2023-03-29T20:34:43.930Z,10.88
2023-03-29T20:39:50.509Z,10.81
2023-03-29T20:44:57.127Z,10.68
2023-03-29T20:50:04.809Z,10.72
2023-03-29T20:55:10.169Z,10.65
2023-03-29T21:00:16.715Z,10.55
2023-03-29T21:05:22.979Z,10.51
2023-03-29T21:10:28.874Z,10.45
2023-03-29T21:15:34.233Z,10.38
2023-03-29T21:20:39.500Z,10.29
2023-03-29T21:25:44.780Z,10.19
2023-03-29T21:30:50.112Z,9.97
2023-03-29T21:35:55.577Z,10.10
2023-03-29T21:41:01.546Z,10.06
2023-03-29T21:46:08.152Z,10.17
2023-03-29T21:51:13.305Z,10.17
2023-03-29T21:56:18.750Z,10.13
2023-03-29T22:01:24.118Z,10.14
2023-03-29T22:06:29.431Z,10.16
2023-03-29T22:11:35.257Z,10.17
2023-03-29T22:16:40.930Z,10.20
2023-03-29T22:21:46.470Z,10.24
2023-03-29T22:26:51.895Z,10.20
2023-03-29T22:31:57.230Z,10.25
2023-03-29T22:37:02.342Z,9.75
2023-03-29T22:42:07.978Z,10.21
2023-03-29T22:47:13.997Z,10.16
2023-03-29T22:52:19.622Z,10.08
2023-03-29T22:57:25.005Z,10.13
2023-03-29T23:02:30.728Z,10.13
2023-03-29T23:07:37.064Z,10.15
2023-03-29T23:12:43.529Z,10.17
2023-03-29T23:17:49.254Z,10.07
2023-03-29T23:22:54.912Z,10.02
2023-03-29T23:28:00.158Z,10.02
2023-03-29T23:33:06.618Z,9.81
2023-03-29T23:38:12.081Z,9.67
2023-03-29T23:43:17.662Z,9.56
2023-03-29T23:48:24.239Z,9.50
2023-03-29T23:53:30.898Z,9.57
2023-03-29T23:58:38.595Z,9.50
